createdAt,value
2019-04-07T00:00:53.071Z,64.70
2019-04-07T00:01:52.972Z,64.10
2019-04-07T00:02:52.959Z,64.10
2019-04-07T00:03:53.278Z,67.30
2019-04-07T00:04:53.478Z,65.60
2019-04-07T00:05:52.914Z,64.60
2019-04-07T00:06:53.278Z,65.80
2019-04-07T00:07:53.076Z,64.00
2019-04-07T00:08:53.528Z,66.20
2019-04-07T00:09:52.876Z,66.20
2019-04-07T00:10:52.906Z,66.50
2019-04-07T00:11:53.506Z,68.20
2019-04-07T00:12:52.840Z,67.20
2019-04-07T00:13:52.833Z,67.10
2019-04-07T00:14:52.834Z,67.60
2019-04-07T00:15:52.827Z,68.60
2019-04-07T00:16:53.662Z,69.50
2019-04-07T00:17:53.200Z,67.80
2019-04-07T00:18:52.783Z,71.10
2019-04-07T00:19:52.776Z,69.70
2019-04-07T00:20:52.891Z,70.40
2019-04-07T00:21:52.744Z,72.50
2019-04-07T00:22:52.822Z,70.00
2019-04-07T00:23:53.147Z,72.80
2019-04-07T00:24:52.709Z,73.00
2019-04-07T00:25:52.702Z,71.50
2019-04-07T00:26:52.714Z,69.70
2019-04-07T00:27:52.793Z,71.50
2019-04-07T00:28:53.156Z,76.30
2019-04-07T00:29:52.678Z,77.70
2019-04-07T00:30:52.647Z,72.80
2019-04-07T00:31:52.633Z,75.70
2019-04-07T00:32:52.658Z,75.60
2019-04-07T00:33:53.027Z,76.40
2019-04-07T00:34:53.002Z,74.40
2019-04-07T00:35:52.598Z,74.20
2019-04-07T00:36:52.585Z,73.60
2019-04-07T00:37:52.884Z,73.70
2019-04-07T00:38:52.603Z,72.20
2019-04-07T00:39:53.250Z,73.50
2019-04-07T00:40:52.652Z,71.90
2019-04-07T00:41:52.988Z,72.70
2019-04-07T00:42:52.517Z,73.70
2019-04-07T00:43:52.508Z,72.50
2019-04-07T00:44:53.169Z,71.90
2019-04-07T00:45:52.534Z,70.10
2019-04-07T00:46:52.568Z,70.40
2019-04-07T00:47:52.652Z,70.10
2019-04-07T00:48:52.955Z,67.60
2019-04-07T00:49:52.441Z,69.10
2019-04-07T00:50:52.426Z,67.30
2019-04-07T00:51:52.945Z,69.70
2019-04-07T00:52:52.529Z,70.10
2019-04-07T00:53:53.050Z,68.20
2019-04-07T00:54:52.426Z,67.90
2019-04-07T00:55:52.926Z,67.50
2019-04-07T00:56:52.361Z,68.70
2019-04-07T00:57:52.947Z,69.30
2019-04-07T00:58:52.457Z,69.10
2019-04-07T00:59:52.332Z,68.30
2019-04-07T01:00:53.024Z,67.50
2019-04-07T01:01:52.608Z,66.70
2019-04-07T01:02:52.930Z,66.70
2019-04-07T01:03:52.304Z,65.70
2019-04-07T01:04:52.289Z,66.60
2019-04-07T01:05:52.298Z,66.80
2019-04-07T01:06:52.690Z,69.60
2019-04-07T01:07:52.332Z,68.50
2019-04-07T01:08:52.483Z,70.80
2019-04-07T01:09:52.223Z,67.70
2019-04-07T01:10:52.500Z,67.10
2019-04-07T01:11:52.370Z,64.90
2019-04-07T01:12:52.253Z,68.30
2019-04-07T01:13:52.791Z,68.40
2019-04-07T01:14:52.199Z,65.00
2019-04-07T01:15:52.238Z,67.90
2019-04-07T01:16:52.878Z,66.40
2019-04-07T01:17:52.365Z,66.80
2019-04-07T01:18:52.143Z,66.80
2019-04-07T01:19:52.131Z,67.80
2019-04-07T01:20:52.100Z,65.70
2019-04-07T01:21:52.097Z,65.30
2019-04-07T01:22:52.732Z,67.90
2019-04-07T01:23:52.112Z,64.20
2019-04-07T01:24:52.662Z,71.40
2019-04-07T01:25:52.265Z,68.50
2019-04-07T01:26:52.544Z,64.40
2019-04-07T01:27:52.037Z,66.50
2019-04-07T01:28:54.306Z,70.10
2019-04-07T01:29:52.041Z,66.70
2019-04-07T01:30:52.003Z,66.50
2019-04-07T01:31:51.988Z,68.30
2019-04-07T01:32:52.187Z,65.10
2019-04-07T01:33:52.194Z,66.30
2019-04-07T01:34:52.022Z,66.50
2019-04-07T01:35:51.979Z,66.80
2019-04-07T01:36:51.931Z,67.10
2019-04-07T01:37:51.918Z,67.90
2019-04-07T01:38:52.121Z,69.90
2019-04-07T01:39:52.646Z,69.00
2019-04-07T01:40:51.981Z,66.10
2019-04-07T01:41:52.538Z,66.10
2019-04-07T01:42:52.189Z,64.30
2019-04-07T01:43:52.498Z,66.90
2019-04-07T01:44:51.931Z,65.70
2019-04-07T01:45:52.465Z,64.50
2019-04-07T01:46:52.479Z,65.90
2019-04-07T01:47:52.400Z,66.30
2019-04-07T01:48:52.101Z,67.40
2019-04-07T01:49:52.350Z,64.50
2019-04-07T01:50:51.858Z,67.90
2019-04-07T01:51:51.872Z,65.10
2019-04-07T01:52:51.923Z,64.80
2019-04-07T01:53:51.977Z,64.50
2019-04-07T01:54:51.738Z,65.80
2019-04-07T01:55:52.093Z,65.80
2019-04-07T01:56:51.709Z,63.60
2019-04-07T01:57:51.892Z,68.50
2019-04-07T01:58:51.694Z,67.10
2019-04-07T01:59:51.938Z,65.80
2019-04-07T02:00:52.160Z,66.80
2019-04-07T02:01:51.772Z,63.80
2019-04-07T02:02:52.054Z,65.30
2019-04-07T02:03:51.666Z,67.50
2019-04-07T02:04:52.136Z,64.40
2019-04-07T02:05:58.657Z,66.40
2019-04-07T02:06:52.909Z,65.40
2019-04-07T02:07:52.331Z,67.60
2019-04-07T02:08:51.752Z,69.20
2019-04-07T02:09:52.100Z,64.60
2019-04-07T02:10:51.645Z,65.50
2019-04-07T02:11:51.557Z,63.50
2019-04-07T02:12:51.977Z,63.50
2019-04-07T02:13:51.642Z,65.60
2019-04-07T02:14:52.143Z,64.50
2019-04-07T02:15:51.521Z,63.50
2019-04-07T02:16:51.600Z,66.50
2019-04-07T02:17:51.587Z,66.60
2019-04-07T02:18:51.492Z,62.70
2019-04-07T02:19:51.478Z,62.60
2019-04-07T02:20:51.614Z,62.30
2019-04-07T02:21:51.553Z,62.20
2019-04-07T02:22:52.042Z,64.20
2019-04-07T02:23:51.453Z,64.00
2019-04-07T02:24:51.537Z,63.50
2019-04-07T02:25:51.543Z,61.80
2019-04-07T02:26:51.388Z,60.90
2019-04-07T02:27:51.391Z,62.10
2019-04-07T02:28:51.371Z,64.20
2019-04-07T02:29:51.367Z,62.80
2019-04-07T02:30:52.191Z,62.00
2019-04-07T02:31:52.245Z,63.30
2019-04-07T02:32:52.376Z,61.50
2019-04-07T02:33:52.323Z,61.40
2019-04-07T02:34:51.320Z,61.40
2019-04-07T02:35:52.400Z,62.30
2019-04-07T02:36:51.976Z,62.20
2019-04-07T02:37:51.321Z,61.20
2019-04-07T02:38:51.832Z,65.00
2019-04-07T02:39:51.250Z,65.40
2019-04-07T02:40:51.471Z,61.80
2019-04-07T02:41:51.766Z,64.60
2019-04-07T02:42:51.634Z,64.10
2019-04-07T02:43:51.330Z,62.60
2019-04-07T02:44:51.204Z,61.70
2019-04-07T02:45:51.276Z,64.40
2019-04-07T02:46:51.660Z,60.80
2019-04-07T02:47:51.346Z,61.10
2019-04-07T02:48:51.315Z,64.80
2019-04-07T02:49:51.781Z,64.10
2019-04-07T02:50:51.138Z,63.50
2019-04-07T02:51:51.129Z,63.00
2019-04-07T02:52:51.437Z,62.70
2019-04-07T02:53:51.153Z,63.30
2019-04-07T02:54:51.499Z,63.80
2019-04-07T02:55:51.117Z,65.70
2019-04-07T02:56:52.198Z,61.20
2019-04-07T02:57:51.073Z,61.50
2019-04-07T02:58:51.442Z,63.10
2019-04-07T02:59:51.499Z,63.10
2019-04-07T03:00:51.020Z,65.20
2019-04-07T03:01:52.015Z,65.60
2019-04-07T03:02:51.924Z,64.00
2019-04-07T03:03:50.997Z,66.30
2019-04-07T03:04:51.216Z,67.30
2019-04-07T03:05:50.993Z,68.30
2019-04-07T03:06:53.045Z,64.60
2019-04-07T03:07:50.951Z,62.80
2019-04-07T03:08:50.938Z,65.80
2019-04-07T03:09:51.689Z,67.00
2019-04-07T03:10:51.395Z,68.90
2019-04-07T03:11:51.058Z,65.30
2019-04-07T03:12:51.197Z,65.10
2019-04-07T03:13:51.942Z,66.30
2019-04-07T03:14:52.913Z,63.20
2019-04-07T03:15:50.857Z,64.20
2019-04-07T03:16:51.539Z,66.20
2019-04-07T03:17:51.835Z,65.30
2019-04-07T03:18:50.845Z,67.90
2019-04-07T03:19:50.814Z,69.10
2019-04-07T03:20:51.529Z,64.40
2019-04-07T03:21:50.798Z,66.30
2019-04-07T03:22:50.910Z,64.40
2019-04-07T03:23:51.402Z,63.90
2019-04-07T03:24:51.560Z,64.00
2019-04-07T03:25:50.996Z,65.50
2019-04-07T03:26:51.411Z,66.90
2019-04-07T03:27:51.554Z,64.20
2019-04-07T03:28:51.414Z,65.50
2019-04-07T03:29:50.710Z,66.50
2019-04-07T03:30:51.942Z,64.30
2019-04-07T03:31:51.563Z,65.30
2019-04-07T03:32:53.467Z,65.90
2019-04-07T03:33:52.146Z,67.10
2019-04-07T03:34:51.998Z,67.10
2019-04-07T03:35:53.142Z,66.60
2019-04-07T03:37:15.379Z,65.90
2019-04-07T03:37:52.835Z,68.40
2019-04-07T03:38:50.644Z,68.90
2019-04-07T03:39:51.278Z,70.90
2019-04-07T03:40:51.528Z,66.30
2019-04-07T03:41:51.244Z,66.60
2019-04-07T03:42:51.176Z,67.30
2019-04-07T03:43:50.860Z,69.30
2019-04-07T03:44:51.199Z,70.80
2019-04-07T03:45:50.532Z,67.70
2019-04-07T03:46:50.517Z,68.00
2019-04-07T03:47:50.576Z,70.90
2019-04-07T03:48:50.890Z,66.70
2019-04-07T03:49:50.886Z,68.90
2019-04-07T03:50:50.840Z,66.30
2019-04-07T03:51:51.404Z,64.60
2019-04-07T03:52:51.064Z,67.40
2019-04-07T03:53:50.573Z,71.30
2019-04-07T03:54:50.865Z,69.30
2019-04-07T03:55:51.259Z,67.80
2019-04-07T03:56:50.419Z,67.90
2019-04-07T03:57:50.695Z,67.90
2019-04-07T03:58:50.776Z,70.30
2019-04-07T03:59:51.318Z,65.90
2019-04-07T04:00:50.382Z,67.90
2019-04-07T04:01:50.353Z,68.50
2019-04-07T04:02:50.579Z,66.90
2019-04-07T04:03:51.345Z,71.50
2019-04-07T04:04:51.401Z,69.80
2019-04-07T04:05:52.562Z,69.20
2019-04-07T04:06:51.382Z,69.60
2019-04-07T04:07:50.286Z,68.10
2019-04-07T04:08:50.971Z,69.60
2019-04-07T04:09:50.387Z,66.00
2019-04-07T04:10:50.255Z,65.50
2019-04-07T04:11:50.245Z,67.00
2019-04-07T04:12:51.163Z,69.10
2019-04-07T04:13:51.011Z,67.10
2019-04-07T04:14:50.801Z,68.70
2019-04-07T04:15:51.450Z,68.80
2019-04-07T04:16:50.940Z,69.60
2019-04-07T04:17:51.206Z,68.50
2019-04-07T04:18:50.364Z,69.90
2019-04-07T04:19:50.189Z,69.80
2019-04-07T04:20:50.174Z,71.30
2019-04-07T04:21:50.977Z,68.90
2019-04-07T04:22:50.624Z,68.40
2019-04-07T04:23:50.108Z,67.50
2019-04-07T04:24:50.276Z,67.30
2019-04-07T04:25:50.111Z,67.60
2019-04-07T04:26:50.169Z,68.00
2019-04-07T04:27:50.822Z,67.40
2019-04-07T04:28:50.741Z,67.90
2019-04-07T04:29:51.924Z,68.80
2019-04-07T04:30:50.661Z,67.30
2019-04-07T04:31:50.039Z,67.10
2019-04-07T04:32:50.041Z,67.30
2019-04-07T04:33:50.010Z,67.70
2019-04-07T04:34:50.181Z,69.80
2019-04-07T04:35:49.983Z,68.80
2019-04-07T04:36:50.300Z,68.20
2019-04-07T04:37:52.285Z,65.80
2019-04-07T04:38:50.317Z,69.40
2019-04-07T04:39:50.995Z,70.20
2019-04-07T04:40:50.587Z,68.10
2019-04-07T04:41:50.802Z,68.90
2019-04-07T04:42:50.421Z,68.50
2019-04-07T04:43:49.894Z,68.30
2019-04-07T04:44:49.907Z,69.70
2019-04-07T04:45:50.470Z,69.50
2019-04-07T04:46:49.877Z,65.80
2019-04-07T04:47:49.848Z,69.70
2019-04-07T04:48:49.841Z,68.00
2019-04-07T04:49:50.322Z,69.60
2019-04-07T04:50:50.413Z,67.30
2019-04-07T04:51:50.178Z,73.10
2019-04-07T04:52:49.810Z,67.10
2019-04-07T04:53:50.372Z,67.20
2019-04-07T04:54:49.801Z,69.00
2019-04-07T04:55:49.762Z,68.40
2019-04-07T04:56:50.353Z,66.50
2019-04-07T04:57:49.979Z,67.80
2019-04-07T04:58:50.702Z,66.70
2019-04-07T04:59:50.690Z,66.00
2019-04-07T05:00:50.694Z,70.10
2019-04-07T05:01:49.953Z,68.70
2019-04-07T05:02:49.719Z,66.10
2019-04-07T05:03:49.686Z,69.20
2019-04-07T05:04:49.809Z,69.10
2019-04-07T05:05:49.654Z,68.60
2019-04-07T05:06:49.640Z,68.20
2019-04-07T05:07:57.658Z,73.70
2019-04-07T05:08:51.163Z,68.00
2019-04-07T05:09:53.058Z,67.70
2019-04-07T05:10:49.600Z,70.70
2019-04-07T05:11:49.716Z,70.90
2019-04-07T05:12:50.253Z,67.50
2019-04-07T05:13:50.169Z,69.20
2019-04-07T05:14:50.192Z,67.20
2019-04-07T05:15:50.202Z,69.80
2019-04-07T05:16:49.526Z,68.40
2019-04-07T05:17:49.516Z,68.70
2019-04-07T05:18:49.511Z,69.20
2019-04-07T05:19:49.912Z,69.10
2019-04-07T05:20:49.947Z,69.10
2019-04-07T05:21:49.537Z,67.60
2019-04-07T05:22:49.483Z,72.80
2019-04-07T05:23:49.466Z,66.00
2019-04-07T05:24:50.393Z,70.10
2019-04-07T05:25:49.474Z,65.90
2019-04-07T05:26:49.431Z,65.30
2019-04-07T05:27:49.427Z,64.90
2019-04-07T05:28:49.399Z,72.40
2019-04-07T05:29:49.534Z,70.50
2019-04-07T05:30:50.120Z,66.80
2019-04-07T05:31:49.406Z,65.90
2019-04-07T05:32:49.377Z,70.10
2019-04-07T05:33:49.849Z,68.40
2019-04-07T05:34:50.452Z,64.50
2019-04-07T05:35:49.596Z,68.60
2019-04-07T05:36:49.406Z,67.30
2019-04-07T05:37:59.935Z,67.40
2019-04-07T05:38:50.389Z,65.00
2019-04-07T05:39:49.277Z,65.60
2019-04-07T05:40:50.024Z,65.70
2019-04-07T05:41:49.275Z,66.90
2019-04-07T05:42:49.715Z,64.90
2019-04-07T05:43:49.269Z,66.50
2019-04-07T05:44:49.229Z,66.60
2019-04-07T05:45:49.882Z,65.40
2019-04-07T05:46:49.768Z,66.40
2019-04-07T05:47:50.798Z,63.10
2019-04-07T05:48:50.499Z,63.20
2019-04-07T05:49:49.903Z,63.70
2019-04-07T05:50:49.175Z,66.30
2019-04-07T05:51:49.174Z,64.10
2019-04-07T05:52:49.885Z,63.70
2019-04-07T05:53:49.234Z,69.00
2019-04-07T05:54:49.949Z,65.00
2019-04-07T05:55:49.198Z,63.30
2019-04-07T05:56:49.278Z,61.30
2019-04-07T05:57:49.701Z,63.90
2019-04-07T05:58:49.075Z,65.30
2019-04-07T05:59:49.060Z,63.50
2019-04-07T06:00:50.176Z,67.10
2019-04-07T06:01:51.583Z,63.30
2019-04-07T06:02:49.040Z,64.50
2019-04-07T06:03:49.022Z,61.10
2019-04-07T06:04:49.289Z,65.90
2019-04-07T06:05:51.124Z,65.40
2019-04-07T06:06:52.701Z,64.50
2019-04-07T06:07:50.515Z,63.60
2019-04-07T06:08:49.730Z,67.20
2019-04-07T06:09:51.197Z,61.60
2019-04-07T06:10:48.943Z,62.50
2019-04-07T06:11:48.930Z,63.70
2019-04-07T06:12:49.220Z,61.90
2019-04-07T06:13:48.947Z,62.10
2019-04-07T06:14:48.908Z,65.00
2019-04-07T06:15:51.159Z,61.10
2019-04-07T06:16:52.467Z,64.60
2019-04-07T06:17:49.060Z,66.10
2019-04-07T06:18:48.864Z,62.60
2019-04-07T06:19:51.363Z,63.40
2019-04-07T06:20:48.834Z,64.20
2019-04-07T06:21:49.842Z,63.50
2019-04-07T06:22:52.626Z,61.70
2019-04-07T06:23:48.805Z,63.20
2019-04-07T06:24:48.816Z,62.30
2019-04-07T06:25:48.803Z,62.60
2019-04-07T06:26:49.954Z,61.70
2019-04-07T06:27:48.957Z,62.30
2019-04-07T06:28:52.149Z,61.30
2019-04-07T06:29:50.117Z,63.10
2019-04-07T06:30:48.725Z,63.00
2019-04-07T06:31:49.434Z,60.40
2019-04-07T06:32:48.770Z,58.90
2019-04-07T06:33:49.119Z,60.90
2019-04-07T06:34:49.908Z,60.20
2019-04-07T06:35:48.676Z,60.40
2019-04-07T06:36:53.610Z,60.60
2019-04-07T06:37:49.765Z,60.00
2019-04-07T06:38:52.312Z,62.30
2019-04-07T06:39:50.732Z,60.30
2019-04-07T06:40:52.741Z,58.90
2019-04-07T06:41:49.605Z,63.80
2019-04-07T06:42:48.851Z,62.20
2019-04-07T06:43:48.604Z,60.80
2019-04-07T06:44:51.657Z,61.10
2019-04-07T06:45:49.114Z,59.10
2019-04-07T06:46:49.175Z,59.50
2019-04-07T06:47:48.683Z,60.40
2019-04-07T06:48:48.766Z,60.80
2019-04-07T06:49:48.533Z,60.90
2019-04-07T06:50:53.131Z,62.50
2019-04-07T06:51:50.092Z,61.70
2019-04-07T06:52:48.803Z,59.00
2019-04-07T06:53:49.097Z,61.30
2019-04-07T06:54:50.094Z,58.90
2019-04-07T06:55:49.682Z,60.00
2019-04-07T06:56:49.021Z,63.50
2019-04-07T06:57:49.119Z,58.20
2019-04-07T06:58:48.428Z,62.30
2019-04-07T06:59:49.147Z,62.30
2019-04-07T07:00:49.273Z,61.70
2019-04-07T07:01:49.254Z,58.20
2019-04-07T07:02:48.849Z,60.10
2019-04-07T07:03:48.582Z,58.30
2019-04-07T07:04:48.556Z,58.90
2019-04-07T07:05:48.375Z,60.10
2019-04-07T07:06:48.471Z,59.00
2019-04-07T07:07:49.727Z,58.90
2019-04-07T07:08:48.601Z,60.50
2019-04-07T07:09:48.296Z,57.70
2019-04-07T07:10:50.489Z,60.10
2019-04-07T07:11:48.596Z,62.50
2019-04-07T07:12:48.284Z,62.00
2019-04-07T07:13:48.911Z,60.30
2019-04-07T07:14:48.249Z,61.50
2019-04-07T07:15:48.354Z,58.90
2019-04-07T07:16:48.998Z,60.10
2019-04-07T07:17:50.703Z,58.60
2019-04-07T07:18:48.769Z,58.60
2019-04-07T07:19:48.788Z,59.90
2019-04-07T07:20:48.180Z,60.00
2019-04-07T07:21:48.975Z,58.50
2019-04-07T07:22:49.455Z,58.90
2019-04-07T07:23:49.071Z,56.60
2019-04-07T07:24:48.167Z,58.70
2019-04-07T07:25:48.606Z,57.90
2019-04-07T07:26:48.113Z,57.70
2019-04-07T07:27:48.737Z,58.50
2019-04-07T07:28:48.094Z,57.20
2019-04-07T07:29:51.656Z,60.00
2019-04-07T07:30:51.038Z,58.20
2019-04-07T07:31:51.153Z,59.80
2019-04-07T07:32:48.619Z,54.40
2019-04-07T07:33:48.462Z,55.40
2019-04-07T07:34:48.046Z,56.70
2019-04-07T07:35:49.214Z,56.10
2019-04-07T07:36:52.946Z,56.00
2019-04-07T07:37:49.792Z,55.90
2019-04-07T07:38:57.611Z,53.20
2019-04-07T07:39:49.275Z,54.20
2019-04-07T07:40:49.344Z,55.40
2019-04-07T07:41:50.304Z,57.70
2019-04-07T07:42:50.686Z,54.90
2019-04-07T07:43:48.209Z,54.90
2019-04-07T07:44:48.336Z,54.40
2019-04-07T07:45:48.624Z,54.30
2019-04-07T07:46:50.395Z,53.70
2019-04-07T07:47:51.314Z,54.10
2019-04-07T07:48:48.914Z,52.90
2019-04-07T07:49:48.261Z,52.70
2019-04-07T07:50:48.673Z,52.60
2019-04-07T07:51:48.730Z,51.60
2019-04-07T07:52:51.370Z,51.00
2019-04-07T07:53:48.814Z,54.60
2019-04-07T07:54:48.504Z,52.90
2019-04-07T07:55:47.792Z,50.40
2019-04-07T07:56:50.231Z,49.30
2019-04-07T07:57:48.169Z,48.90
2019-04-07T07:58:48.330Z,50.10
2019-04-07T07:59:47.749Z,50.70
2019-04-07T08:00:47.753Z,48.50
2019-04-07T08:01:50.267Z,48.00
2019-04-07T08:02:50.086Z,48.60
2019-04-07T08:03:51.749Z,48.80
2019-04-07T08:04:48.797Z,48.40
2019-04-07T08:05:47.684Z,47.30
2019-04-07T08:06:47.929Z,48.30
2019-04-07T08:07:49.457Z,46.90
2019-04-07T08:08:48.534Z,48.20
2019-04-07T08:09:48.044Z,48.60
2019-04-07T08:10:47.737Z,48.20
2019-04-07T08:11:47.851Z,47.90
2019-04-07T08:12:49.525Z,47.70
2019-04-07T08:13:47.625Z,47.10
2019-04-07T08:14:52.201Z,49.30
2019-04-07T08:15:49.253Z,47.30
2019-04-07T08:16:47.876Z,49.20
2019-04-07T08:17:47.566Z,48.70
2019-04-07T08:18:47.542Z,48.10
2019-04-07T08:19:47.711Z,47.90
2019-04-07T08:20:47.899Z,47.70
2019-04-07T08:21:50.347Z,45.40
2019-04-07T08:22:48.187Z,46.50
2019-04-07T08:23:48.164Z,45.70
2019-04-07T08:24:49.608Z,47.90
2019-04-07T08:25:47.521Z,47.30
2019-04-07T08:26:48.164Z,46.50
2019-04-07T08:27:47.699Z,44.50
2019-04-07T08:28:48.170Z,45.00
2019-04-07T08:29:47.493Z,45.70
2019-04-07T08:30:47.722Z,44.90
2019-04-07T08:31:51.512Z,45.00
2019-04-07T08:32:48.837Z,44.70
2019-04-07T08:33:50.365Z,42.80
2019-04-07T08:34:47.380Z,42.60
2019-04-07T08:35:48.028Z,42.00
2019-04-07T08:36:48.169Z,43.50
2019-04-07T08:37:48.683Z,43.90
2019-04-07T08:38:47.723Z,43.00
2019-04-07T08:39:47.567Z,41.30
2019-04-07T08:40:47.889Z,44.50
2019-04-07T08:41:47.296Z,43.30
2019-04-07T08:42:49.063Z,43.70
2019-04-07T08:43:47.300Z,45.50
2019-04-07T08:44:47.404Z,43.50
2019-04-07T08:45:47.260Z,45.80
2019-04-07T08:46:47.265Z,45.40
2019-04-07T08:47:49.027Z,43.40
2019-04-07T08:48:50.394Z,42.30
2019-04-07T08:49:47.214Z,41.90
2019-04-07T08:50:47.449Z,41.30
2019-04-07T08:51:47.193Z,42.20
2019-04-07T08:52:47.810Z,43.40
2019-04-07T08:53:47.356Z,43.90
2019-04-07T08:54:50.325Z,44.40
2019-04-07T08:55:48.737Z,46.90
2019-04-07T08:56:47.941Z,43.60
2019-04-07T08:57:47.162Z,46.60
2019-04-07T08:58:47.777Z,43.40
2019-04-07T08:59:47.101Z,44.60
2019-04-07T09:00:50.944Z,42.50
2019-04-07T09:01:47.730Z,43.50
2019-04-07T09:02:59.194Z,43.80
2019-04-07T09:03:48.587Z,45.90
2019-04-07T09:04:49.749Z,43.40
2019-04-07T09:05:47.789Z,43.70
2019-04-07T09:06:47.505Z,44.80
2019-04-07T09:07:47.183Z,44.90
2019-04-07T09:08:47.007Z,46.00
2019-04-07T09:09:48.572Z,44.00
2019-04-07T09:10:49.160Z,45.20
2019-04-07T09:11:47.075Z,46.30
2019-04-07T09:12:46.985Z,46.20
2019-04-07T09:13:47.578Z,44.00
2019-04-07T09:14:46.983Z,43.90
2019-04-07T09:15:48.835Z,42.80
2019-04-07T09:16:49.368Z,43.80
2019-04-07T09:17:48.716Z,42.90
2019-04-07T09:18:55.018Z,41.40
2019-04-07T09:19:47.888Z,42.80
2019-04-07T09:20:49.098Z,41.90
2019-04-07T09:21:50.141Z,42.30
2019-04-07T09:22:47.475Z,42.20
2019-04-07T09:23:46.884Z,40.70
2019-04-07T09:24:47.226Z,41.80
2019-04-07T09:25:46.830Z,43.40
2019-04-07T09:26:46.880Z,40.60
2019-04-07T09:27:48.608Z,41.80
2019-04-07T09:28:47.590Z,41.20
2019-04-07T09:29:47.773Z,40.40
2019-04-07T09:30:47.157Z,41.10
2019-04-07T09:31:47.618Z,40.90
2019-04-07T09:32:46.740Z,40.50
2019-04-07T09:33:48.946Z,41.30
2019-04-07T09:34:50.548Z,40.10
2019-04-07T09:35:47.737Z,41.30
2019-04-07T09:36:49.945Z,39.90
2019-04-07T09:37:47.106Z,40.20
2019-04-07T09:38:47.035Z,40.70
2019-04-07T09:39:56.939Z,39.50
2019-04-07T09:40:48.443Z,39.50
2019-04-07T09:41:46.668Z,41.20
2019-04-07T09:42:46.676Z,40.00
2019-04-07T09:43:46.623Z,39.80
2019-04-07T09:44:46.791Z,38.40
2019-04-07T09:45:46.654Z,37.70
2019-04-07T09:46:49.966Z,37.90
2019-04-07T09:47:47.782Z,36.40
2019-04-07T09:48:50.987Z,35.70
2019-04-07T09:49:49.312Z,36.40
2019-04-07T09:50:47.063Z,39.40
2019-04-07T09:51:46.605Z,37.10
2019-04-07T09:52:48.852Z,36.70
2019-04-07T09:53:48.800Z,36.70
2019-04-07T09:54:47.237Z,38.00
2019-04-07T09:55:47.266Z,34.50
2019-04-07T09:56:47.207Z,34.90
2019-04-07T09:57:47.321Z,37.00
2019-04-07T09:58:46.957Z,34.10
2019-04-07T09:59:50.779Z,32.70
2019-04-07T10:00:47.732Z,35.10
2019-04-07T10:01:46.431Z,33.70
2019-04-07T10:02:46.998Z,33.40
2019-04-07T10:03:46.413Z,32.20
2019-04-07T10:04:46.415Z,32.70
2019-04-07T10:05:46.417Z,32.40
2019-04-07T10:06:46.380Z,33.20
2019-04-07T10:07:46.870Z,33.00
2019-04-07T10:08:46.377Z,32.40
2019-04-07T10:09:46.350Z,31.00
2019-04-07T10:10:47.186Z,30.30
2019-04-07T10:11:46.320Z,30.10
2019-04-07T10:12:46.317Z,29.90
2019-04-07T10:13:46.413Z,29.60
2019-04-07T10:14:46.607Z,31.10
2019-04-07T10:15:46.302Z,29.10
2019-04-07T10:16:46.267Z,27.30
2019-04-07T10:17:47.061Z,28.50
2019-04-07T10:18:46.336Z,27.20
2019-04-07T10:19:47.529Z,27.10
2019-04-07T10:20:46.712Z,28.00
2019-04-07T10:21:46.225Z,24.90
2019-04-07T10:22:46.247Z,23.10
2019-04-07T10:23:49.252Z,23.90
2019-04-07T10:24:46.198Z,22.80
2019-04-07T10:25:46.615Z,23.80
2019-04-07T10:26:46.154Z,23.20
2019-04-07T10:27:46.439Z,22.70
2019-04-07T10:28:46.207Z,24.30
2019-04-07T10:29:46.296Z,24.30
2019-04-07T10:30:46.119Z,23.40
2019-04-07T10:31:46.384Z,22.70
2019-04-07T10:32:46.337Z,22.30
2019-04-07T10:33:46.157Z,23.00
2019-04-07T10:34:46.139Z,20.50
2019-04-07T10:35:46.773Z,20.80
2019-04-07T10:36:46.069Z,20.60
2019-04-07T10:37:46.077Z,20.90
2019-04-07T10:38:46.031Z,21.00
2019-04-07T10:39:46.248Z,23.10
2019-04-07T10:40:46.596Z,22.10
2019-04-07T10:41:46.422Z,21.90
2019-04-07T10:42:46.022Z,22.40
2019-04-07T10:43:46.709Z,20.70
2019-04-07T10:44:46.856Z,22.10
2019-04-07T10:45:45.973Z,22.20
2019-04-07T10:46:46.095Z,21.70
2019-04-07T10:47:46.150Z,23.20
2019-04-07T10:48:46.694Z,22.80
2019-04-07T10:49:57.539Z,22.00
2019-04-07T10:50:47.005Z,22.40
2019-04-07T10:51:46.008Z,21.10
2019-04-07T10:52:45.992Z,22.90
2019-04-07T10:53:45.861Z,22.10
2019-04-07T10:54:45.863Z,22.40
2019-04-07T10:55:45.850Z,21.20
2019-04-07T10:56:46.070Z,21.90
2019-04-07T10:57:45.916Z,21.50
2019-04-07T10:58:46.100Z,25.00
2019-04-07T10:59:46.488Z,20.90
2019-04-07T11:00:48.827Z,20.50
2019-04-07T11:01:45.835Z,19.80
2019-04-07T11:02:45.958Z,20.30
2019-04-07T11:03:45.841Z,20.00
2019-04-07T11:04:46.191Z,20.80
2019-04-07T11:05:45.795Z,20.20
2019-04-07T11:06:46.160Z,20.10
2019-04-07T11:07:45.799Z,19.50
2019-04-07T11:08:46.545Z,20.70
2019-04-07T11:09:45.866Z,20.40
2019-04-07T11:10:46.382Z,19.30
2019-04-07T11:11:48.102Z,20.00
2019-04-07T11:12:45.806Z,19.70
2019-04-07T11:13:45.796Z,19.10
2019-04-07T11:14:45.639Z,20.40
2019-04-07T11:15:45.798Z,19.90
2019-04-07T11:16:46.298Z,18.40
2019-04-07T11:17:45.611Z,21.30
2019-04-07T11:18:45.606Z,22.60
2019-04-07T11:19:45.589Z,22.40
2019-04-07T11:20:45.634Z,22.00
2019-04-07T11:21:45.569Z,21.30
2019-04-07T11:22:45.664Z,22.30
2019-04-07T11:23:45.538Z,32.40
2019-04-07T11:24:45.882Z,20.10
2019-04-07T11:25:46.124Z,21.70
2019-04-07T11:26:45.554Z,21.80
2019-04-07T11:27:46.161Z,19.50
2019-04-07T11:28:45.541Z,18.30
2019-04-07T11:29:45.496Z,19.70
2019-04-07T11:30:45.530Z,20.40
2019-04-07T11:31:45.452Z,19.70
2019-04-07T11:32:46.143Z,22.20
2019-04-07T11:33:45.427Z,28.80
2019-04-07T11:34:45.540Z,21.90
2019-04-07T11:35:45.641Z,22.10
2019-04-07T11:36:45.397Z,19.40
2019-04-07T11:37:45.884Z,19.20
2019-04-07T11:38:45.487Z,20.40
2019-04-07T11:39:46.274Z,17.80
2019-04-07T11:40:50.840Z,21.20
2019-04-07T11:41:47.105Z,19.50
2019-04-07T11:42:46.093Z,19.60
2019-04-07T11:43:45.347Z,20.40
2019-04-07T11:44:45.607Z,19.60
2019-04-07T11:45:56.517Z,18.90
2019-04-07T11:46:46.488Z,18.40
2019-04-07T11:47:45.983Z,18.60
2019-04-07T11:48:45.301Z,18.70
2019-04-07T11:49:46.115Z,19.40
2019-04-07T11:50:46.056Z,18.50
2019-04-07T11:51:45.238Z,19.90
2019-04-07T11:52:45.251Z,18.70
2019-04-07T11:53:45.931Z,18.60
2019-04-07T11:54:45.220Z,19.20
2019-04-07T11:55:45.471Z,19.40
2019-04-07T11:56:45.951Z,19.30
2019-04-07T11:57:45.554Z,18.40
2019-04-07T11:58:45.336Z,18.70
2019-04-07T11:59:45.906Z,18.90
2019-04-07T12:00:45.263Z,18.70
2019-04-07T12:01:48.004Z,19.20
2019-04-07T12:02:45.515Z,18.40
2019-04-07T12:03:45.383Z,19.30
2019-04-07T12:04:45.107Z,19.70
2019-04-07T12:05:46.047Z,20.00
2019-04-07T12:06:48.169Z,20.10
2019-04-07T12:07:45.792Z,20.20
2019-04-07T12:08:45.660Z,19.30
2019-04-07T12:09:45.513Z,18.90
2019-04-07T12:10:56.162Z,19.20
2019-04-07T12:11:46.426Z,18.30
2019-04-07T12:12:45.028Z,18.40
2019-04-07T12:13:45.030Z,18.10
2019-04-07T12:14:45.520Z,19.00
2019-04-07T12:15:45.191Z,18.70
2019-04-07T12:16:44.975Z,18.90
2019-04-07T12:17:45.191Z,18.60
2019-04-07T12:18:47.202Z,17.70
2019-04-07T12:19:45.041Z,18.00
2019-04-07T12:20:45.097Z,17.20
2019-04-07T12:21:45.076Z,17.20
2019-04-07T12:22:47.725Z,17.60
2019-04-07T12:23:44.905Z,18.70
2019-04-07T12:24:45.543Z,17.50
2019-04-07T12:25:44.900Z,18.10
2019-04-07T12:26:45.200Z,17.40
2019-04-07T12:27:45.981Z,17.70
2019-04-07T12:28:47.604Z,18.50
2019-04-07T12:29:46.033Z,17.70
2019-04-07T12:30:44.835Z,18.30
2019-04-07T12:31:45.023Z,18.10
2019-04-07T12:32:44.872Z,18.30
2019-04-07T12:33:44.807Z,17.70
2019-04-07T12:34:46.730Z,18.40
2019-04-07T12:35:44.893Z,20.40
2019-04-07T12:36:44.783Z,19.20
2019-04-07T12:37:44.774Z,18.20
2019-04-07T12:38:45.327Z,20.60
2019-04-07T12:39:47.313Z,21.50
2019-04-07T12:40:45.263Z,20.10
2019-04-07T12:41:44.800Z,19.00
2019-04-07T12:42:44.731Z,18.10
2019-04-07T12:43:48.375Z,21.70
2019-04-07T12:44:45.248Z,20.30
2019-04-07T12:45:45.013Z,19.90
2019-04-07T12:46:45.388Z,19.80
2019-04-07T12:47:44.999Z,17.60
2019-04-07T12:48:44.662Z,18.50
2019-04-07T12:49:45.863Z,18.80
2019-04-07T12:50:48.694Z,18.30
2019-04-07T12:51:44.599Z,17.90
2019-04-07T12:52:45.173Z,18.60